sensor_id;sensor_type;location;lat;lon;timestamp;pressure;altitude;pressure_sealevel;temperature;humidity
73671;BME280;61968;48.178;11.566;2024-01-15T00:02:05;94437.91;;;-1.81;48.76
73671;BME280;61968;48.178;11.566;2024-01-15T00:04:36;94437.00;;;-1.74;48.73
73671;BME280;61968;48.178;11.566;2024-01-15T00:07:03;94448.03;;;-1.65;48.04
73671;BME280;61968;48.178;11.566;2024-01-15T00:09:29;94447.66;;;-1.83;48.48
73671;BME280;61968;48.178;11.566;2024-01-15T00:11:58;94453.78;;;-1.91;48.46
73671;BME280;61968;48.178;11.566;2024-01-15T00:14:25;94450.59;;;-2.59;51.13
73671;BME280;61968;48.178;11.566;2024-01-15T00:16:51;94459.78;;;-2.56;51.24
73671;BME280;61968;48.178;11.566;2024-01-15T00:19:20;94442.00;;;-2.30;50.52
73671;BME280;61968;48.178;11.566;2024-01-15T00:21:47;94459.06;;;-2.50;51.38
73671;BME280;61968;48.178;11.566;2024-01-15T00:24:14;94461.25;;;-2.18;49.36
73671;BME280;61968;48.178;11.566;2024-01-15T00:26:40;94459.13;;;-1.71;48.38
73671;BME280;61968;48.178;11.566;2024-01-15T00:29:08;94467.16;;;-1.44;47.82
73671;BME280;61968;48.178;11.566;2024-01-15T00:31:35;94474.69;;;-1.50;48.42
73671;BME280;61968;48.178;11.566;2024-01-15T00:34:01;94464.69;;;-2.10;48.52
73671;BME280;61968;48.178;11.566;2024-01-15T00:36:28;94470.75;;;-1.67;48.79
73671;BME280;61968;48.178;11.566;2024-01-15T00:38:54;94468.91;;;-2.60;49.03
73671;BME280;61968;48.178;11.566;2024-01-15T00:41:21;94486.09;;;-2.68;50.58
73671;BME280;61968;48.178;11.566;2024-01-15T00:43:48;94491.53;;;-2.77;50.45
73671;BME280;61968;48.178;11.566;2024-01-15T00:46:16;94497.59;;;-3.00;50.54
73671;BME280;61968;48.178;11.566;2024-01-15T00:48:43;94498.03;;;-2.96;50.64
73671;BME280;61968;48.178;11.566;2024-01-15T00:51:09;94504.91;;;-3.03;49.44
73671;BME280;61968;48.178;11.566;2024-01-15T00:53:36;94509.25;;;-3.42;51.00
73671;BME280;61968;48.178;11.566;2024-01-15T00:56:03;94516.91;;;-3.80;50.77
73671;BME280;61968;48.178;11.566;2024-01-15T00:58:29;94514.00;;;-3.76;50.67
73671;BME280;61968;48.178;11.566;2024-01-15T01:00:56;94514.38;;;-3.34;48.60
73671;BME280;61968;48.178;11.566;2024-01-15T01:03:24;94521.03;;;-3.39;47.60
73671;BME280;61968;48.178;11.566;2024-01-15T01:05:51;94514.69;;;-3.83;48.80
73671;BME280;61968;48.178;11.566;2024-01-15T01:08:17;94518.97;;;-3.06;46.88
73671;BME280;61968;48.178;11.566;2024-01-15T01:10:44;94509.66;;;-3.53;47.51
73671;BME280;61968;48.178;11.566;2024-01-15T01:13:10;94514.22;;;-3.17;46.44
73671;BME280;61968;48.178;11.566;2024-01-15T01:15:37;94517.69;;;-3.48;46.46
73671;BME280;61968;48.178;11.566;2024-01-15T01:18:04;94520.84;;;-3.38;47.20
73671;BME280;61968;48.178;11.566;2024-01-15T01:20:32;94520.22;;;-3.40;46.39
73671;BME280;61968;48.178;11.566;2024-01-15T01:22:59;94510.66;;;-3.16;46.60
73671;BME280;61968;48.178;11.566;2024-01-15T01:25:25;94510.13;;;-3.12;46.65
73671;BME280;61968;48.178;11.566;2024-01-15T01:27:52;94509.03;;;-3.55;47.12
73671;BME280;61968;48.178;11.566;2024-01-15T01:30:19;94513.19;;;-3.08;46.38
73671;BME280;61968;48.178;11.566;2024-01-15T01:32:45;94513.91;;;-2.99;46.17
73671;BME280;61968;48.178;11.566;2024-01-15T01:35:12;94513.69;;;-2.60;46.04
73671;BME280;61968;48.178;11.566;2024-01-15T01:37:40;94514.91;;;-3.00;45.15
73671;BME280;61968;48.178;11.566;2024-01-15T01:40:08;94512.88;;;-3.13;45.56
73671;BME280;61968;48.178;11.566;2024-01-15T01:42:34;94513.09;;;-3.00;45.79
73671;BME280;61968;48.178;11.566;2024-01-15T01:45:01;94513.03;;;-3.29;45.26
73671;BME280;61968;48.178;11.566;2024-01-15T01:47:27;94517.09;;;-3.12;44.29
73671;BME280;61968;48.178;11.566;2024-01-15T01:49:54;94507.84;;;-2.92;43.71
73671;BME280;61968;48.178;11.566;2024-01-15T01:52:21;94505.13;;;-2.75;43.14
73671;BME280;61968;48.178;11.566;2024-01-15T01:54:49;94506.09;;;-2.76;43.35
73671;BME280;61968;48.178;11.566;2024-01-15T01:57:17;94515.25;;;-3.03;44.00
73671;BME280;61968;48.178;11.566;2024-01-15T01:59:45;94513.09;;;-3.38;44.89
73671;BME280;61968;48.178;11.566;2024-01-15T02:02:13;94519.59;;;-3.04;43.67
73671;BME280;61968;48.178;11.566;2024-01-15T02:04:40;94515.75;;;-3.46;43.81
73671;BME280;61968;48.178;11.566;2024-01-15T02:07:07;94526.41;;;-3.26;43.49
73671;BME280;61968;48.178;11.566;2024-01-15T02:09:35;94522.81;;;-3.40;44.34
73671;BME280;61968;48.178;11.566;2024-01-15T02:12:03;94525.06;;;-2.99;43.45
73671;BME280;61968;48.178;11.566;2024-01-15T02:14:30;94528.25;;;-3.12;42.82
73671;BME280;61968;48.178;11.566;2024-01-15T02:16:56;94517.38;;;-2.92;43.13
73671;BME280;61968;48.178;11.566;2024-01-15T02:19:23;94509.22;;;-2.51;42.63
73671;BME280;61968;48.178;11.566;2024-01-15T02:21:49;94512.59;;;-2.66;42.27
73671;BME280;61968;48.178;11.566;2024-01-15T02:24:17;94522.72;;;-3.08;43.37
73671;BME280;61968;48.178;11.566;2024-01-15T02:26:44;94522.03;;;-3.02;42.61
73671;BME280;61968;48.178;11.566;2024-01-15T02:29:11;94529.38;;;-3.52;43.37
73671;BME280;61968;48.178;11.566;2024-01-15T02:31:37;94527.69;;;-3.45;44.27
73671;BME280;61968;48.178;11.566;2024-01-15T02:34:04;94528.72;;;-2.93;42.97
73671;BME280;61968;48.178;11.566;2024-01-15T02:36:31;94537.84;;;-2.53;42.32
73671;BME280;61968;48.178;11.566;2024-01-15T02:38:57;94528.88;;;-3.10;42.92
73671;BME280;61968;48.178;11.566;2024-01-15T02:41:25;94535.00;;;-3.11;42.72
73671;BME280;61968;48.178;11.566;2024-01-15T02:43:52;94534.00;;;-3.24;43.72
73671;BME280;61968;48.178;11.566;2024-01-15T02:46:18;94543.75;;;-3.35;43.92
73671;BME280;61968;48.178;11.566;2024-01-15T02:48:45;94544.16;;;-3.00;43.19
73671;BME280;61968;48.178;11.566;2024-01-15T02:51:11;94527.84;;;-2.85;42.75
73671;BME280;61968;48.178;11.566;2024-01-15T02:53:39;94526.59;;;-2.90;42.95
73671;BME280;61968;48.178;11.566;2024-01-15T02:56:06;94544.28;;;-2.78;42.61
73671;BME280;61968;48.178;11.566;2024-01-15T02:58:34;94548.47;;;-2.63;42.21
73671;BME280;61968;48.178;11.566;2024-01-15T03:01:01;94548.19;;;-2.68;42.54
73671;BME280;61968;48.178;11.566;2024-01-15T03:03:27;94556.97;;;-2.39;42.87
73671;BME280;61968;48.178;11.566;2024-01-15T03:05:54;94540.91;;;-2.64;42.60
73671;BME280;61968;48.178;11.566;2024-01-15T03:08:20;94543.50;;;-2.64;43.93
73671;BME280;61968;48.178;11.566;2024-01-15T03:10:47;94536.22;;;-2.83;43.37
73671;BME280;61968;48.178;11.566;2024-01-15T03:13:14;94534.31;;;-2.52;43.44
73671;BME280;61968;48.178;11.566;2024-01-15T03:15:42;94532.69;;;-2.38;42.87
73671;BME280;61968;48.178;11.566;2024-01-15T03:18:09;94538.59;;;-2.44;43.27
73671;BME280;61968;48.178;11.566;2024-01-15T03:20:35;94525.19;;;-2.48;43.26
73671;BME280;61968;48.178;11.566;2024-01-15T03:23:02;94526.06;;;-2.41;43.38
73671;BME280;61968;48.178;11.566;2024-01-15T03:25:28;94532.44;;;-2.43;42.86
73671;BME280;61968;48.178;11.566;2024-01-15T03:27:55;94534.81;;;-2.71;43.50
73671;BME280;61968;48.178;11.566;2024-01-15T03:30:21;94539.91;;;-2.63;42.60
73671;BME280;61968;48.178;11.566;2024-01-15T03:32:49;94540.28;;;-2.51;43.05
73671;BME280;61968;48.178;11.566;2024-01-15T03:35:16;94535.72;;;-2.64;43.08
73671;BME280;61968;48.178;11.566;2024-01-15T03:37:42;94539.97;;;-2.86;43.90
73671;BME280;61968;48.178;11.566;2024-01-15T03:40:10;94533.50;;;-2.67;43.87
73671;BME280;61968;48.178;11.566;2024-01-15T03:42:36;94541.25;;;-2.82;43.28
73671;BME280;61968;48.178;11.566;2024-01-15T03:45:04;94531.31;;;-2.93;43.65
73671;BME280;61968;48.178;11.566;2024-01-15T03:47:30;94538.94;;;-2.62;42.79
73671;BME280;61968;48.178;11.566;2024-01-15T03:49:58;94541.84;;;-2.80;42.82
73671;BME280;61968;48.178;11.566;2024-01-15T03:52:25;94532.94;;;-2.63;42.83
73671;BME280;61968;48.178;11.566;2024-01-15T03:54:51;94537.41;;;-2.71;43.80
73671;BME280;61968;48.178;11.566;2024-01-15T03:57:17;94536.97;;;-2.60;42.74
73671;BME280;61968;48.178;11.566;2024-01-15T03:59:44;94528.84;;;-2.72;43.51
73671;BME280;61968;48.178;11.566;2024-01-15T04:02:12;94528.91;;;-2.80;43.87
73671;BME280;61968;48.178;11.566;2024-01-15T04:04:40;94522.19;;;-3.04;43.41
73671;BME280;61968;48.178;11.566;2024-01-15T04:07:08;94528.13;;;-2.80;43.58
73671;BME280;61968;48.178;11.566;2024-01-15T04:09:35;94526.00;;;-3.38;44.67
73671;BME280;61968;48.178;11.566;2024-01-15T04:12:02;94524.56;;;-3.17;44.25
73671;BME280;61968;48.178;11.566;2024-01-15T04:14:29;94525.16;;;-2.92;44.15
73671;BME280;61968;48.178;11.566;2024-01-15T04:16:55;94511.19;;;-2.68;43.04
73671;BME280;61968;48.178;11.566;2024-01-15T04:19:22;94515.03;;;-2.49;42.62
73671;BME280;61968;48.178;11.566;2024-01-15T04:21:48;94511.44;;;-2.63;43.00
73671;BME280;61968;48.178;11.566;2024-01-15T04:24:16;94516.00;;;-2.50;43.37
73671;BME280;61968;48.178;11.566;2024-01-15T04:26:43;94503.78;;;-2.42;43.25
73671;BME280;61968;48.178;11.566;2024-01-15T04:29:10;94506.78;;;-2.23;42.22
73671;BME280;61968;48.178;11.566;2024-01-15T04:31:40;94520.38;;;-2.36;42.40
73671;BME280;61968;48.178;11.566;2024-01-15T04:34:08;94524.88;;;-2.97;43.73
73671;BME280;61968;48.178;11.566;2024-01-15T04:36:46;94516.00;;;-2.65;43.82
73671;BME280;61968;48.178;11.566;2024-01-15T04:39:13;94522.09;;;-2.43;42.58
73671;BME280;61968;48.178;11.566;2024-01-15T04:41:42;94516.28;;;-2.60;43.05
73671;BME280;61968;48.178;11.566;2024-01-15T04:44:11;94520.78;;;-2.77;43.66
73671;BME280;61968;48.178;11.566;2024-01-15T04:46:39;94510.91;;;-2.44;43.15
73671;BME280;61968;48.178;11.566;2024-01-15T04:49:05;94517.34;;;-2.39;42.70
73671;BME280;61968;48.178;11.566;2024-01-15T04:51:32;94521.34;;;-2.81;43.18
73671;BME280;61968;48.178;11.566;2024-01-15T04:54:00;94515.44;;;-2.90;43.58
73671;BME280;61968;48.178;11.566;2024-01-15T04:56:27;94499.81;;;-2.97;43.56
73671;BME280;61968;48.178;11.566;2024-01-15T04:58:56;94507.69;;;-2.75;43.73
73671;BME280;61968;48.178;11.566;2024-01-15T05:01:22;94517.06;;;-2.74;43.65
73671;BME280;61968;48.178;11.566;2024-01-15T05:03:49;94508.59;;;-2.68;43.43
73671;BME280;61968;48.178;11.566;2024-01-15T05:06:16;94509.94;;;-2.72;43.62
73671;BME280;61968;48.178;11.566;2024-01-15T05:08:44;94507.44;;;-2.66;43.60
73671;BME280;61968;48.178;11.566;2024-01-15T05:11:11;94517.63;;;-2.64;43.11
73671;BME280;61968;48.178;11.566;2024-01-15T05:13:38;94519.81;;;-2.91;43.54
73671;BME280;61968;48.178;11.566;2024-01-15T05:16:09;94510.66;;;-2.49;43.56
73671;BME280;61968;48.178;11.566;2024-01-15T05:18:47;94509.31;;;-2.45;42.99
73671;BME280;61968;48.178;11.566;2024-01-15T05:21:25;94507.09;;;-2.48;42.66
73671;BME280;61968;48.178;11.566;2024-01-15T05:24:07;94518.50;;;-1.12;66.32
73671;BME280;61968;48.178;11.566;2024-01-15T05:26:34;94512.56;;;0.33;66.84
73671;BME280;61968;48.178;11.566;2024-01-15T05:29:00;94499.56;;;0.33;48.76
73671;BME280;61968;48.178;11.566;2024-01-15T05:31:29;94491.91;;;-0.36;41.49
73671;BME280;61968;48.178;11.566;2024-01-15T05:33:56;94502.69;;;-1.17;40.71
73671;BME280;61968;48.178;11.566;2024-01-15T05:36:23;94505.94;;;-2.45;42.56
73671;BME280;61968;48.178;11.566;2024-01-15T05:38:49;94510.94;;;-2.73;43.80
73671;BME280;61968;48.178;11.566;2024-01-15T05:41:18;94498.50;;;-2.33;43.24
73671;BME280;61968;48.178;11.566;2024-01-15T05:43:45;94500.47;;;-2.35;43.39
73671;BME280;61968;48.178;11.566;2024-01-15T05:46:12;94507.50;;;-2.29;42.97
73671;BME280;61968;48.178;11.566;2024-01-15T05:48:42;94509.31;;;-2.45;43.42
73671;BME280;61968;48.178;11.566;2024-01-15T05:51:16;94506.44;;;-2.35;43.05
73671;BME280;61968;48.178;11.566;2024-01-15T05:53:42;94508.75;;;-2.25;43.67
73671;BME280;61968;48.178;11.566;2024-01-15T05:56:10;94507.94;;;-2.11;43.15
73671;BME280;61968;48.178;11.566;2024-01-15T05:58:37;94508.03;;;-2.19;42.58
73671;BME280;61968;48.178;11.566;2024-01-15T06:01:04;94508.38;;;-2.22;42.61
73671;BME280;61968;48.178;11.566;2024-01-15T06:03:39;94502.69;;;-2.62;43.59
73671;BME280;61968;48.178;11.566;2024-01-15T06:06:22;94506.63;;;-2.51;43.17
73671;BME280;61968;48.178;11.566;2024-01-15T06:08:53;94507.69;;;-2.75;43.61
73671;BME280;61968;48.178;11.566;2024-01-15T06:11:25;94510.03;;;-2.51;43.56
73671;BME280;61968;48.178;11.566;2024-01-15T06:13:56;94501.25;;;-2.20;42.89
73671;BME280;61968;48.178;11.566;2024-01-15T06:16:27;94507.59;;;-2.37;42.71
73671;BME280;61968;48.178;11.566;2024-01-15T06:19:03;94504.56;;;-2.56;42.94
73671;BME280;61968;48.178;11.566;2024-01-15T06:21:31;94507.34;;;-2.57;43.45
73671;BME280;61968;48.178;11.566;2024-01-15T06:23:58;94512.25;;;-2.77;43.81
73671;BME280;61968;48.178;11.566;2024-01-15T06:26:24;94504.78;;;-2.57;42.91
73671;BME280;61968;48.178;11.566;2024-01-15T06:28:54;94512.06;;;-2.31;42.85
73671;BME280;61968;48.178;11.566;2024-01-15T06:31:21;94509.59;;;-2.39;42.27
73671;BME280;61968;48.178;11.566;2024-01-15T06:33:48;94512.59;;;-2.80;42.04
73671;BME280;61968;48.178;11.566;2024-01-15T06:36:15;94505.28;;;-2.32;43.21
73671;BME280;61968;48.178;11.566;2024-01-15T06:38:44;94503.84;;;-2.50;42.84
73671;BME280;61968;48.178;11.566;2024-01-15T06:41:11;94509.59;;;-2.39;42.16
73671;BME280;61968;48.178;11.566;2024-01-15T06:43:37;94507.53;;;-2.59;43.08
73671;BME280;61968;48.178;11.566;2024-01-15T06:46:04;94510.03;;;-2.51;42.33
73671;BME280;61968;48.178;11.566;2024-01-15T06:48:30;94515.84;;;-2.64;42.29
73671;BME280;61968;48.178;11.566;2024-01-15T06:50:57;94519.84;;;-2.61;43.16
73671;BME280;61968;48.178;11.566;2024-01-15T06:53:24;94512.88;;;-2.46;42.61
73671;BME280;61968;48.178;11.566;2024-01-15T06:55:52;94512.63;;;-2.36;41.97
73671;BME280;61968;48.178;11.566;2024-01-15T06:58:19;94521.16;;;-2.65;42.41
73671;BME280;61968;48.178;11.566;2024-01-15T07:00:46;94506.09;;;-2.47;43.04
73671;BME280;61968;48.178;11.566;2024-01-15T07:03:13;94516.81;;;-2.35;42.32
73671;BME280;61968;48.178;11.566;2024-01-15T07:05:43;94518.47;;;-2.87;43.38
73671;BME280;61968;48.178;11.566;2024-01-15T07:08:10;94511.16;;;-2.83;43.23
73671;BME280;61968;48.178;11.566;2024-01-15T07:10:37;94512.44;;;-2.79;43.66
73671;BME280;61968;48.178;11.566;2024-01-15T07:13:05;94514.56;;;-2.53;42.82
73671;BME280;61968;48.178;11.566;2024-01-15T07:15:32;94495.56;;;-2.60;43.37
73671;BME280;61968;48.178;11.566;2024-01-15T07:17:58;94490.63;;;-2.25;42.45
73671;BME280;61968;48.178;11.566;2024-01-15T07:20:25;94482.03;;;-2.11;42.30
73671;BME280;61968;48.178;11.566;2024-01-15T07:22:52;94478.28;;;-2.08;41.69
73671;BME280;61968;48.178;11.566;2024-01-15T07:25:19;94483.50;;;-1.87;41.54
73671;BME280;61968;48.178;11.566;2024-01-15T07:27:46;94487.97;;;-2.32;41.96
73671;BME280;61968;48.178;11.566;2024-01-15T07:30:18;94495.91;;;-2.33;42.46
73671;BME280;61968;48.178;11.566;2024-01-15T07:32:44;94497.06;;;-2.21;42.50
73671;BME280;61968;48.178;11.566;2024-01-15T07:35:11;94492.25;;;-2.24;42.66
73671;BME280;61968;48.178;11.566;2024-01-15T07:37:38;94499.28;;;-2.18;42.83
73671;BME280;61968;48.178;11.566;2024-01-15T07:40:06;94503.56;;;-2.25;43.13
73671;BME280;61968;48.178;11.566;2024-01-15T07:42:34;94487.53;;;-2.35;43.41
73671;BME280;61968;48.178;11.566;2024-01-15T07:45:01;94508.50;;;-2.15;42.83
73671;BME280;61968;48.178;11.566;2024-01-15T07:47:31;94503.72;;;-1.97;42.90
73671;BME280;61968;48.178;11.566;2024-01-15T07:49:58;94494.56;;;-2.59;43.74
73671;BME280;61968;48.178;11.566;2024-01-15T07:52:25;94495.53;;;-2.15;43.39
73671;BME280;61968;48.178;11.566;2024-01-15T07:54:52;94489.25;;;-2.43;43.87
73671;BME280;61968;48.178;11.566;2024-01-15T07:57:24;94489.66;;;-2.98;44.36
73671;BME280;61968;48.178;11.566;2024-01-15T07:59:52;94488.66;;;-3.12;44.93
73671;BME280;61968;48.178;11.566;2024-01-15T08:02:19;94483.59;;;-2.91;45.05
73671;BME280;61968;48.178;11.566;2024-01-15T08:04:53;94480.00;;;-3.04;45.35
73671;BME280;61968;48.178;11.566;2024-01-15T08:07:20;94472.63;;;-2.93;45.31
73671;BME280;61968;48.178;11.566;2024-01-15T08:09:47;94467.69;;;-3.17;45.33
73671;BME280;61968;48.178;11.566;2024-01-15T08:12:14;94476.94;;;-3.23;45.27
73671;BME280;61968;48.178;11.566;2024-01-15T08:14:41;94478.34;;;-2.82;45.42
73671;BME280;61968;48.178;11.566;2024-01-15T08:17:08;94454.25;;;-2.83;44.73
73671;BME280;61968;48.178;11.566;2024-01-15T08:19:35;94449.16;;;-2.47;44.06
73671;BME280;61968;48.178;11.566;2024-01-15T08:22:03;94469.53;;;-2.73;44.43
73671;BME280;61968;48.178;11.566;2024-01-15T08:24:30;94463.28;;;-2.79;44.37
73671;BME280;61968;48.178;11.566;2024-01-15T08:26:56;94453.72;;;-2.78;45.12
73671;BME280;61968;48.178;11.566;2024-01-15T08:29:23;94458.59;;;-2.98;44.95
73671;BME280;61968;48.178;11.566;2024-01-15T08:31:50;94467.88;;;-3.04;45.45
73671;BME280;61968;48.178;11.566;2024-01-15T08:34:16;94457.00;;;-3.14;44.98
73671;BME280;61968;48.178;11.566;2024-01-15T08:36:43;94459.50;;;-3.44;46.44
73671;BME280;61968;48.178;11.566;2024-01-15T08:39:11;94458.81;;;-3.00;45.91
73671;BME280;61968;48.178;11.566;2024-01-15T08:41:38;94478.34;;;-2.82;45.14
73671;BME280;61968;48.178;11.566;2024-01-15T08:44:05;94477.50;;;-2.98;44.97
73671;BME280;61968;48.178;11.566;2024-01-15T08:46:31;94457.59;;;-3.27;45.85
73671;BME280;61968;48.178;11.566;2024-01-15T08:48:58;94467.03;;;-2.81;44.53
73671;BME280;61968;48.178;11.566;2024-01-15T08:51:24;94474.56;;;-2.95;44.47
73671;BME280;61968;48.178;11.566;2024-01-15T08:53:51;94469.06;;;-3.06;45.04
73671;BME280;61968;48.178;11.566;2024-01-15T08:56:19;94482.16;;;-2.93;45.87
73671;BME280;61968;48.178;11.566;2024-01-15T08:58:46;94474.50;;;-2.72;44.99
73671;BME280;61968;48.178;11.566;2024-01-15T09:01:13;94472.91;;;-2.88;45.61
73671;BME280;61968;48.178;11.566;2024-01-15T09:03:40;94478.09;;;-2.73;44.88
73671;BME280;61968;48.178;11.566;2024-01-15T09:06:07;94485.13;;;-2.81;45.27
73671;BME280;61968;48.178;11.566;2024-01-15T09:08:35;94477.88;;;-2.86;45.68
73671;BME280;61968;48.178;11.566;2024-01-15T09:11:02;94462.63;;;-2.36;44.99
73671;BME280;61968;48.178;11.566;2024-01-15T09:13:30;94474.22;;;-2.77;44.70
73671;BME280;61968;48.178;11.566;2024-01-15T09:15:58;94473.53;;;-2.56;45.07
73671;BME280;61968;48.178;11.566;2024-01-15T09:18:25;94481.72;;;-2.52;44.90
73671;BME280;61968;48.178;11.566;2024-01-15T09:20:51;94482.44;;;-2.88;45.02
73671;BME280;61968;48.178;11.566;2024-01-15T09:23:18;94482.16;;;-2.93;45.72
73671;BME280;61968;48.178;11.566;2024-01-15T09:25:45;94474.66;;;-2.44;44.64
73671;BME280;61968;48.178;11.566;2024-01-15T09:28:13;94482.00;;;-2.47;43.87
73671;BME280;61968;48.178;11.566;2024-01-15T09:30:41;94468.69;;;-2.59;44.80
73671;BME280;61968;48.178;11.566;2024-01-15T09:33:08;94479.69;;;-2.57;45.42
73671;BME280;61968;48.178;11.566;2024-01-15T09:35:34;94481.72;;;-2.52;44.32
73671;BME280;61968;48.178;11.566;2024-01-15T09:38:03;94492.69;;;-2.35;43.88
73671;BME280;61968;48.178;11.566;2024-01-15T09:40:31;94499.75;;;-2.74;44.85
73671;BME280;61968;48.178;11.566;2024-01-15T09:43:00;94487.81;;;-3.27;45.43
73671;BME280;61968;48.178;11.566;2024-01-15T09:45:28;94489.25;;;-3.10;45.13
73671;BME280;61968;48.178;11.566;2024-01-15T09:47:57;94486.81;;;-2.89;45.25
73671;BME280;61968;48.178;11.566;2024-01-15T09:50:24;94479.59;;;-2.64;45.21
73671;BME280;61968;48.178;11.566;2024-01-15T09:52:54;94488.31;;;-2.65;44.85
73671;BME280;61968;48.178;11.566;2024-01-15T09:55:22;94480.72;;;-2.07;43.70
73671;BME280;61968;48.178;11.566;2024-01-15T09:57:49;94478.63;;;-1.97;43.61
73671;BME280;61968;48.178;11.566;2024-01-15T10:00:16;94483.47;;;-1.72;42.74
73671;BME280;61968;48.178;11.566;2024-01-15T10:02:43;94481.09;;;-1.88;42.20
73671;BME280;61968;48.178;11.566;2024-01-15T10:05:11;94477.44;;;-2.45;43.12
73671;BME280;61968;48.178;11.566;2024-01-15T10:07:39;94471.19;;;-2.51;43.62
73671;BME280;61968;48.178;11.566;2024-01-15T10:10:07;94470.19;;;-2.20;43.03
73671;BME280;61968;48.178;11.566;2024-01-15T10:12:34;94466.16;;;-2.23;42.71
73671;BME280;61968;48.178;11.566;2024-01-15T10:15:01;94456.59;;;-2.22;42.57
73671;BME280;61968;48.178;11.566;2024-01-15T10:17:28;94462.44;;;-2.35;43.14
73671;BME280;61968;48.178;11.566;2024-01-15T10:19:56;94458.69;;;-2.32;42.71
73671;BME280;61968;48.178;11.566;2024-01-15T10:22:25;94449.16;;;-2.47;42.83
73671;BME280;61968;48.178;11.566;2024-01-15T10:24:52;94443.25;;;-2.41;43.31
73671;BME280;61968;48.178;11.566;2024-01-15T10:27:19;94434.34;;;-2.68;43.59
73671;BME280;61968;48.178;11.566;2024-01-15T10:29:46;94423.81;;;-2.36;43.24
73671;BME280;61968;48.178;11.566;2024-01-15T10:32:12;94428.09;;;-2.07;42.48
73671;BME280;61968;48.178;11.566;2024-01-15T10:34:39;94423.19;;;-2.53;42.92
73671;BME280;61968;48.178;11.566;2024-01-15T10:37:07;94423.13;;;-2.60;43.90
73671;BME280;61968;48.178;11.566;2024-01-15T10:39:36;94423.56;;;-2.71;44.00
73671;BME280;61968;48.178;11.566;2024-01-15T10:42:03;94419.31;;;-2.94;44.54
73671;BME280;61968;48.178;11.566;2024-01-15T10:44:29;94412.84;;;-2.68;43.59
73671;BME280;61968;48.178;11.566;2024-01-15T10:46:57;94414.84;;;-2.85;44.13
73671;BME280;61968;48.178;11.566;2024-01-15T10:49:24;94429.44;;;-2.77;43.97
73671;BME280;61968;48.178;11.566;2024-01-15T10:51:52;94417.16;;;-2.75;44.29
73671;BME280;61968;48.178;11.566;2024-01-15T10:54:19;94410.03;;;-2.73;44.21
73671;BME280;61968;48.178;11.566;2024-01-15T10:56:49;94405.28;;;-2.55;43.66
73671;BME280;61968;48.178;11.566;2024-01-15T10:59:16;94407.16;;;-2.93;44.22
73671;BME280;61968;48.178;11.566;2024-01-15T11:01:49;94413.28;;;-2.65;44.18
73671;BME280;61968;48.178;11.566;2024-01-15T11:04:20;94420.25;;;-2.14;43.34
73671;BME280;61968;48.178;11.566;2024-01-15T11:06:55;94413.22;;;-1.99;42.56
73671;BME280;61968;48.178;11.566;2024-01-15T11:09:23;94407.25;;;-2.21;43.37
73671;BME280;61968;48.178;11.566;2024-01-15T11:12:06;94406.09;;;-1.75;42.79
73671;BME280;61968;48.178;11.566;2024-01-15T11:14:34;94396.81;;;-1.63;42.15
73671;BME280;61968;48.178;11.566;2024-01-15T11:17:02;94400.25;;;-1.56;42.43
73671;BME280;61968;48.178;11.566;2024-01-15T11:19:43;94394.34;;;-2.14;43.74
73671;BME280;61968;48.178;11.566;2024-01-15T11:22:48;94407.13;;;-1.91;43.55
73671;BME280;61968;48.178;11.566;2024-01-15T11:25:21;94401.81;;;-2.41;44.53
73671;BME280;61968;48.178;11.566;2024-01-15T11:27:51;94400.97;;;-2.11;43.75
73671;BME280;61968;48.178;11.566;2024-01-15T11:30:30;94397.69;;;-2.20;43.61
73671;BME280;61968;48.178;11.566;2024-01-15T11:32:56;94396.75;;;-2.34;44.30
73671;BME280;61968;48.178;11.566;2024-01-15T11:35:50;94392.22;;;-2.25;44.07
73671;BME280;61968;48.178;11.566;2024-01-15T11:38:29;94387.31;;;-1.99;44.05
73671;BME280;61968;48.178;11.566;2024-01-15T11:40:58;94387.69;;;-2.02;43.96
73671;BME280;61968;48.178;11.566;2024-01-15T11:43:28;94391.69;;;-2.21;44.41
73671;BME280;61968;48.178;11.566;2024-01-15T11:45:58;94395.84;;;-2.05;44.32
73671;BME280;61968;48.178;11.566;2024-01-15T11:48:36;94384.69;;;-1.56;43.74
73671;BME280;61968;48.178;11.566;2024-01-15T11:51:08;94383.78;;;-1.98;43.42
73671;BME280;61968;48.178;11.566;2024-01-15T11:53:48;94387.41;;;-1.70;43.60
73671;BME280;61968;48.178;11.566;2024-01-15T11:56:17;94383.84;;;-1.63;43.33
73671;BME280;61968;48.178;11.566;2024-01-15T11:58:46;94389.66;;;-1.33;42.84
73671;BME280;61968;48.178;11.566;2024-01-15T12:01:16;94372.38;;;-1.54;42.22
73671;BME280;61968;48.178;11.566;2024-01-15T12:03:47;94363.13;;;-1.35;42.33
73671;BME280;61968;48.178;11.566;2024-01-15T12:06:14;94364.38;;;-0.96;41.45
73671;BME280;61968;48.178;11.566;2024-01-15T12:08:41;94358.84;;;-0.86;40.94
73671;BME280;61968;48.178;11.566;2024-01-15T12:11:11;94357.63;;;-1.25;41.91
73671;BME280;61968;48.178;11.566;2024-01-15T12:13:41;94361.41;;;-0.93;41.07
73671;BME280;61968;48.178;11.566;2024-01-15T12:16:11;94356.63;;;-1.24;41.39
73671;BME280;61968;48.178;11.566;2024-01-15T12:18:40;94344.22;;;-1.00;40.84
73671;BME280;61968;48.178;11.566;2024-01-15T12:21:10;94337.19;;;-1.07;40.63
73671;BME280;61968;48.178;11.566;2024-01-15T12:23:39;94323.78;;;-0.69;40.63
73671;BME280;61968;48.178;11.566;2024-01-15T12:26:05;94306.66;;;-1.05;40.61
73671;BME280;61968;48.178;11.566;2024-01-15T12:28:32;94295.91;;;-1.36;41.45
73671;BME280;61968;48.178;11.566;2024-01-15T12:31:02;94283.78;;;-0.94;40.62
73671;BME280;61968;48.178;11.566;2024-01-15T12:33:33;94276.44;;;-0.77;39.79
73671;BME280;61968;48.178;11.566;2024-01-15T12:36:00;94281.34;;;-1.03;40.25
73671;BME280;61968;48.178;11.566;2024-01-15T12:38:28;94295.47;;;-0.57;40.03
73671;BME280;61968;48.178;11.566;2024-01-15T12:40:55;94292.72;;;-0.29;39.74
73671;BME280;61968;48.178;11.566;2024-01-15T12:43:21;94299.56;;;0.05;38.86
73671;BME280;61968;48.178;11.566;2024-01-15T12:45:48;94303.16;;;-0.02;39.17
73671;BME280;61968;48.178;11.566;2024-01-15T12:48:15;94317.16;;;0.03;39.17
73671;BME280;61968;48.178;11.566;2024-01-15T12:50:44;94307.53;;;-0.03;38.43
73671;BME280;61968;48.178;11.566;2024-01-15T12:53:12;94300.56;;;0.11;39.11
73671;BME280;61968;48.178;11.566;2024-01-15T12:55:39;94286.78;;;0.17;38.65